Terminal Aerodrome Forecast
Issued by NWS

Home | Current Version | Previous Version | Text Only | Print | Product List | Glossary On
Versions: 1 2 3 4 5 6 7 8 9 10 11 12 13 14 15
951
FTUS41 KPBZ 190520
TAFDUJ
TAF
KDUJ 190520Z 1906/2006 22003KT P6SM SCT035
     FM191600 25008KT P6SM BKN040
     FM191800 24010KT P6SM VCTS BKN035CB
      TEMPO 1919/1921 5SM -TSRA
     FM192200 27005KT P6SM SCT035=

USA.gov is the U.S. government's official web portal to all federal, state and local government web resources and services.